Sea Jet — WDD2601 — position and weather

sailwx.info

Track history (hours):
 
Tides and Currents Weather Stations Pressure Air Temp Water Temp Dewpoint Dewpoint Depression Visibility Wind Speed Wind Dir Waves Ship Positions

Sea Jet

Owner: Cross Sound Ferry Services, Inc., New London, CT. More information available from US FCC via Universal Licensing System and Coast Guard Vessel Documentation Center.

Last reported at 2015-Aug-31 00:16 UTC. Time now 2015-Aug-31 04:47 UTC.
Position N 41°14' W 072°09'.

Length 33 m.

Type: High speed craft. MMSI: 367117430.

Date/timePositionNaut miles runAvg speedWind from/ knotsBaromVisibWave heightAir tempDewpointWater temp
2015-Aug-31 00:16N 41°14' W 072°09'1 0.0
2015-Aug-29 12:18N 41°14' W 072°10'1 0.9
2015-Aug-29 11:29N 41°13' W 072°11'9 0.5
2015-Aug-28 16:27N 41°21' W 072°06'0 0.0
2015-Aug-28 15:33N 41°21' W 072°06'3 3.1
2015-Aug-28 14:34N 41°18' W 072°05'9 9.1
2015-Aug-28 13:34N 41°11' W 072°13'1010.3
2015-Aug-28 12:34N 41°20' W 072°05'1110.7
2015-Aug-28 11:34N 41°11' W 072°13'1211.8
2015-Aug-28 10:33N 41°21' W 072°06'2 0.2
2015-Aug-28 00:34N 41°20' W 072°05'9 8.7
2015-Aug-27 23:34N 41°13' W 072°12'9 8.6
2015-Aug-27 22:34N 41°20' W 072°05'8 7.8
2015-Aug-27 21:34N 41°13' W 072°11'9 9.0
2015-Aug-27 20:33N 41°21' W 072°06'0 0.0
2015-Aug-27 19:33N 41°21' W 072°06'1 1.4
2015-Aug-27 18:34N 41°20' W 072°05'1211.6
2015-Aug-27 17:34N 41°09' W 072°09'1312.7
2015-Aug-27 16:34N 41°21' W 072°05'0 0.2
2015-Aug-27 15:33N 41°21' W 072°06'5 4.7
2015-Aug-27 14:34N 41°17' W 072°06'7 7.1
2015-Aug-27 13:34N 41°12' W 072°12'10 9.8
2015-Aug-27 12:34N 41°20' W 072°05'9 8.5
2015-Aug-27 11:34N 41°13' W 072°11'10 9.7
2015-Aug-27 10:33N 41°21' W 072°06'0 0.0
2015-Aug-26 18:33N 41°21' W 072°06'1212.1
2015-Aug-26 17:34N 41°10' W 072°10'1211.7
2015-Aug-26 16:33N 41°21' W 072°05'0 0.4
2015-Aug-26 15:33N 41°21' W 072°06'1 1.1
2015-Aug-26 14:33N 41°20' W 072°05'9 9.4
2015-Aug-26 13:34N 41°12' W 072°12'9 9.2
2015-Aug-26 12:34N 41°20' W 072°05'1110.6
2015-Aug-26 11:34N 41°11' W 072°13'11 1.1
2015-Aug-26 01:33N 41°21' W 072°06'2019.9
2015-Aug-26 00:34N 41°17' W 071°40'2 2.4
2015-Aug-25 23:34N 41°16' W 071°37'2221.9
2015-Aug-25 22:33N 41°21' W 072°06'1312.7
2015-Aug-25 21:34N 41°18' W 071°49'1414.0
2015-Aug-25 20:33N 41°10' W 071°33'0 0.0
2015-Aug-25 19:33N 41°10' W 071°33'0 0.0
2015-Aug-25 18:33N 41°10' W 071°33'0 0.0
2015-Aug-25 17:33N 41°10' W 071°33'1919.0
2015-Aug-25 16:34N 41°15' W 071°58'9 8.8
2015-Aug-25 15:33N 41°21' W 072°06'5 4.9
2015-Aug-25 14:34N 41°16' W 072°05'6 6.3
2015-Aug-25 13:34N 41°13' W 072°12'9 8.9
2015-Aug-25 12:33N 41°20' W 072°05'8 8.4
2015-Aug-25 11:34N 41°14' W 072°12'9 9.2
2015-Aug-25 10:34N 41°21' W 072°06'1 0.1
2015-Aug-25 00:33N 41°20' W 072°05'10 9.9
2015-Aug-24 23:33N 41°12' W 072°12'10 9.8
2015-Aug-24 22:33N 41°20' W 072°05'9 9.1
2015-Aug-24 21:34N 41°13' W 072°12'10 9.8
2015-Aug-24 20:33N 41°21' W 072°06'0 0.0
2015-Aug-24 19:33N 41°21' W 072°06'0 0.0
2015-Aug-24 18:33N 41°21' W 072°06'0 0.0
2015-Aug-24 17:33N 41°21' W 072°06'0 0.0
2015-Aug-24 16:33N 41°21' W 072°06'2 0.4
2015-Aug-24 12:34N 41°20' W 072°05'7 6.6
2015-Aug-24 11:28N 41°14' W 072°10'8 9.2
2015-Aug-24 10:33N 41°21' W 072°06'1 0.2
2015-Aug-24 01:34N 41°20' W 072°05'2424.4
2015-Aug-24 00:34N 41°15' W 071°33'8 8.4
2015-Aug-23 23:34N 41°17' W 071°44'1616.1
2015-Aug-23 22:33N 41°20' W 072°05'1010.1
2015-Aug-23 21:34N 41°12' W 072°12'1110.7
2015-Aug-23 20:33N 41°21' W 072°06'0 0.0
2015-Aug-23 19:33N 41°21' W 072°06'1 0.7
2015-Aug-23 18:33N 41°21' W 072°05'1212.4
2015-Aug-23 17:34N 41°09' W 072°09'1312.7
2015-Aug-23 16:33N 41°21' W 072°05'0 0.3
2015-Aug-23 15:33N 41°21' W 072°06'3 3.2
2015-Aug-23 14:34N 41°18' W 072°05'8 8.4
2015-Aug-23 13:34N 41°12' W 072°12'10 9.8
2015-Aug-23 12:34N 41°20' W 072°05'1010.1
2015-Aug-23 11:34N 41°12' W 072°12'1111.1
2015-Aug-23 10:34N 41°21' W 072°06'2 0.2
2015-Aug-23 00:34N 41°20' W 072°05'9 8.6
2015-Aug-22 23:34N 41°13' W 072°11'9 8.6
2015-Aug-22 22:34N 41°20' W 072°05'10 9.6
2015-Aug-22 21:34N 41°12' W 072°12'1110.7
2015-Aug-22 20:34N 41°21' W 072°06'0 0.0
2015-Aug-22 19:33N 41°21' W 072°06'1 1.0
2015-Aug-22 18:33N 41°20' W 072°05'1212.1
2015-Aug-22 17:33N 41°09' W 072°09'1312.8
2015-Aug-22 16:33N 41°21' W 072°05'0 0.2
2015-Aug-22 15:33N 41°21' W 072°06'2 2.0
2015-Aug-22 14:34N 41°19' W 072°05'10 9.5
2015-Aug-22 13:34N 41°12' W 072°13'10 9.7
2015-Aug-22 12:34N 41°20' W 072°05'9 9.4
2015-Aug-22 11:34N 41°12' W 072°12'1110.6
2015-Aug-22 10:33N 41°21' W 072°06'1 0.1
2015-Aug-22 00:33N 41°20' W 072°05'9 9.0
2015-Aug-21 23:34N 41°13' W 072°12'9 9.0
2015-Aug-21 22:34N 41°20' W 072°05'8 7.8
2015-Aug-21 21:34N 41°13' W 072°10'9 8.7
2015-Aug-21 20:33N 41°21' W 072°06'0 0.0
2015-Aug-21 19:34N 41°21' W 072°06'0 0.0
2015-Aug-21 18:33N 41°21' W 072°06'0 0.0
2015-Aug-21 17:33N 41°21' W 072°06'0 0.0
2015-Aug-21 16:33N 41°21' W 072°06'0 0.0
2015-Aug-21 15:33N 41°21' W 072°06'4 4.0
2015-Aug-21 14:34N 41°17' W 072°06'8 7.7
2015-Aug-21 13:34N 41°12' W 072°13'1010.0
2015-Aug-21 12:34N 41°20' W 072°05'9 9.5
2015-Aug-21 11:34N 41°12' W 072°12'1110.5
2015-Aug-21 10:33N 41°21' W 072°06'1 0.1
2015-Aug-21 00:33N 41°20' W 072°05'  
Track history (hours):
 
Tides and Currents Weather Stations Pressure Air Temp Water Temp Dewpoint Dewpoint Depression Visibility Wind Speed Wind Dir Waves Ship Positions

Sea Jet

Owner: Cross Sound Ferry Services, Inc., New London, CT. More information available from US FCC via Universal Licensing System and Coast Guard Vessel Documentation Center.

Last reported at 2015-Aug-31 00:16 UTC. Time now 2015-Aug-31 04:47 UTC.
Position N 41°14' W 072°09'.

Length 33 m.

Type: High speed craft. MMSI: 367117430.

Date/timePositionNaut miles runAvg speedWind from/ knotsBaromVisibWave heightAir tempDewpointWater temp
2015-Aug-31 00:16N 41°14' W 072°09'1 0.0
2015-Aug-29 12:18N 41°14' W 072°10'1 0.9
2015-Aug-29 11:29N 41°13' W 072°11'9 0.5
2015-Aug-28 16:27N 41°21' W 072°06'0 0.0
2015-Aug-28 15:33N 41°21' W 072°06'3 3.1
2015-Aug-28 14:34N 41°18' W 072°05'9 9.1
2015-Aug-28 13:34N 41°11' W 072°13'1010.3
2015-Aug-28 12:34N 41°20' W 072°05'1110.7
2015-Aug-28 11:34N 41°11' W 072°13'1211.8
2015-Aug-28 10:33N 41°21' W 072°06'2 0.2
2015-Aug-28 00:34N 41°20' W 072°05'9 8.7
2015-Aug-27 23:34N 41°13' W 072°12'9 8.6
2015-Aug-27 22:34N 41°20' W 072°05'8 7.8
2015-Aug-27 21:34N 41°13' W 072°11'9 9.0
2015-Aug-27 20:33N 41°21' W 072°06'0 0.0
2015-Aug-27 19:33N 41°21' W 072°06'1 1.4
2015-Aug-27 18:34N 41°20' W 072°05'1211.6
2015-Aug-27 17:34N 41°09' W 072°09'1312.7
2015-Aug-27 16:34N 41°21' W 072°05'0 0.2
2015-Aug-27 15:33N 41°21' W 072°06'5 4.7
2015-Aug-27 14:34N 41°17' W 072°06'7 7.1
2015-Aug-27 13:34N 41°12' W 072°12'10 9.8
2015-Aug-27 12:34N 41°20' W 072°05'9 8.5
2015-Aug-27 11:34N 41°13' W 072°11'10 9.7
2015-Aug-27 10:33N 41°21' W 072°06'0 0.0
2015-Aug-26 18:33N 41°21' W 072°06'1212.1
2015-Aug-26 17:34N 41°10' W 072°10'1211.7
2015-Aug-26 16:33N 41°21' W 072°05'0 0.4
2015-Aug-26 15:33N 41°21' W 072°06'1 1.1
2015-Aug-26 14:33N 41°20' W 072°05'9 9.4
2015-Aug-26 13:34N 41°12' W 072°12'9 9.2
2015-Aug-26 12:34N 41°20' W 072°05'1110.6
2015-Aug-26 11:34N 41°11' W 072°13'11 1.1
2015-Aug-26 01:33N 41°21' W 072°06'2019.9
2015-Aug-26 00:34N 41°17' W 071°40'2 2.4
2015-Aug-25 23:34N 41°16' W 071°37'2221.9
2015-Aug-25 22:33N 41°21' W 072°06'1312.7
2015-Aug-25 21:34N 41°18' W 071°49'1414.0
2015-Aug-25 20:33N 41°10' W 071°33'0 0.0
2015-Aug-25 19:33N 41°10' W 071°33'0 0.0
2015-Aug-25 18:33N 41°10' W 071°33'0 0.0
2015-Aug-25 17:33N 41°10' W 071°33'1919.0
2015-Aug-25 16:34N 41°15' W 071°58'9 8.8
2015-Aug-25 15:33N 41°21' W 072°06'5 4.9
2015-Aug-25 14:34N 41°16' W 072°05'6 6.3
2015-Aug-25 13:34N 41°13' W 072°12'9 8.9
2015-Aug-25 12:33N 41°20' W 072°05'8 8.4
2015-Aug-25 11:34N 41°14' W 072°12'9 9.2
2015-Aug-25 10:34N 41°21' W 072°06'1 0.1
2015-Aug-25 00:33N 41°20' W 072°05'10 9.9
2015-Aug-24 23:33N 41°12' W 072°12'10 9.8
2015-Aug-24 22:33N 41°20' W 072°05'9 9.1
2015-Aug-24 21:34N 41°13' W 072°12'10 9.8
2015-Aug-24 20:33N 41°21' W 072°06'0 0.0
2015-Aug-24 19:33N 41°21' W 072°06'0 0.0
2015-Aug-24 18:33N 41°21' W 072°06'0 0.0
2015-Aug-24 17:33N 41°21' W 072°06'0 0.0
2015-Aug-24 16:33N 41°21' W 072°06'2 0.4
2015-Aug-24 12:34N 41°20' W 072°05'7 6.6
2015-Aug-24 11:28N 41°14' W 072°10'8 9.2
2015-Aug-24 10:33N 41°21' W 072°06'1 0.2
2015-Aug-24 01:34N 41°20' W 072°05'2424.4
2015-Aug-24 00:34N 41°15' W 071°33'8 8.4
2015-Aug-23 23:34N 41°17' W 071°44'1616.1
2015-Aug-23 22:33N 41°20' W 072°05'1010.1
2015-Aug-23 21:34N 41°12' W 072°12'1110.7
2015-Aug-23 20:33N 41°21' W 072°06'0 0.0
2015-Aug-23 19:33N 41°21' W 072°06'1 0.7
2015-Aug-23 18:33N 41°21' W 072°05'1212.4
2015-Aug-23 17:34N 41°09' W 072°09'1312.7
2015-Aug-23 16:33N 41°21' W 072°05'0 0.3
2015-Aug-23 15:33N 41°21' W 072°06'3 3.2
2015-Aug-23 14:34N 41°18' W 072°05'8 8.4
2015-Aug-23 13:34N 41°12' W 072°12'10 9.8
2015-Aug-23 12:34N 41°20' W 072°05'1010.1
2015-Aug-23 11:34N 41°12' W 072°12'1111.1
2015-Aug-23 10:34N 41°21' W 072°06'2 0.2
2015-Aug-23 00:34N 41°20' W 072°05'9 8.6
2015-Aug-22 23:34N 41°13' W 072°11'9 8.6
2015-Aug-22 22:34N 41°20' W 072°05'10 9.6
2015-Aug-22 21:34N 41°12' W 072°12'1110.7
2015-Aug-22 20:34N 41°21' W 072°06'0 0.0
2015-Aug-22 19:33N 41°21' W 072°06'1 1.0
2015-Aug-22 18:33N 41°20' W 072°05'1212.1
2015-Aug-22 17:33N 41°09' W 072°09'1312.8
2015-Aug-22 16:33N 41°21' W 072°05'0 0.2
2015-Aug-22 15:33N 41°21' W 072°06'2 2.0
2015-Aug-22 14:34N 41°19' W 072°05'10 9.5
2015-Aug-22 13:34N 41°12' W 072°13'10 9.7
2015-Aug-22 12:34N 41°20' W 072°05'9 9.4
2015-Aug-22 11:34N 41°12' W 072°12'1110.6
2015-Aug-22 10:33N 41°21' W 072°06'1 0.1
2015-Aug-22 00:33N 41°20' W 072°05'9 9.0
2015-Aug-21 23:34N 41°13' W 072°12'9 9.0
2015-Aug-21 22:34N 41°20' W 072°05'8 7.8
2015-Aug-21 21:34N 41°13' W 072°10'9 8.7
2015-Aug-21 20:33N 41°21' W 072°06'0 0.0
2015-Aug-21 19:34N 41°21' W 072°06'0 0.0
2015-Aug-21 18:33N 41°21' W 072°06'0 0.0
2015-Aug-21 17:33N 41°21' W 072°06'0 0.0
2015-Aug-21 16:33N 41°21' W 072°06'0 0.0
2015-Aug-21 15:33N 41°21' W 072°06'4 4.0
2015-Aug-21 14:34N 41°17' W 072°06'8 7.7
2015-Aug-21 13:34N 41°12' W 072°13'1010.0
2015-Aug-21 12:34N 41°20' W 072°05'9 9.5
2015-Aug-21 11:34N 41°12' W 072°12'1110.5
2015-Aug-21 10:33N 41°21' W 072°06'1 0.1
2015-Aug-21 00:33N 41°20' W 072°05'  

Dump ship's entire track history